Terminal Aerodrome Forecast
Issued by NWS

Home | Current Version | Previous Version | Text Only | Print | Product List | Glossary On
Versions: 1 2 3 4 5 6 7 8 9 10 11 12 13 14 15 16 17 18 19 20 21 22 23 24 25 26 27 28 29 30 31 32 33 34 35 36 37 38 39 40 41 42 43 44 45 46 47 48 49 50
000
FTUS45 KGJT 191501 AAA
TAFRIL
TAF AMD
KRIL 191501Z 1915/2012 16003KT P6SM -SN SCT017 BKN029 OVC050
      TEMPO 1915/1917 1 1/2SM -SN BR BKN016
     FM191800 00000KT P6SM FEW060 SCT250
     FM200300 17003KT P6SM OVC080=

USA.gov is the U.S. government's official web portal to all federal, state and local government web resources and services.